sensor_id;sensor_type;location;lat;lon;timestamp;P1;durP1;ratioP1;P2;durP2;ratioP2
12332;SDS011;6232;48.094;11.288;2023-02-28T00:01:42;6.93;;;4.70;;
12332;SDS011;6232;48.094;11.288;2023-02-28T00:04:28;3.70;;;3.40;;
12332;SDS011;6232;48.094;11.288;2023-02-28T00:07:13;7.03;;;3.77;;
12332;SDS011;6232;48.094;11.288;2023-02-28T00:09:59;6.90;;;4.27;;
12332;SDS011;6232;48.094;11.288;2023-02-28T00:12:45;2.70;;;2.60;;
12332;SDS011;6232;48.094;11.288;2023-02-28T00:15:31;4.67;;;4.23;;
12332;SDS011;6232;48.094;11.288;2023-02-28T00:18:16;4.33;;;3.90;;
12332;SDS011;6232;48.094;11.288;2023-02-28T00:21:02;3.47;;;3.17;;
12332;SDS011;6232;48.094;11.288;2023-02-28T00:23:47;3.83;;;3.47;;
12332;SDS011;6232;48.094;11.288;2023-02-28T00:26:33;5.37;;;4.23;;
12332;SDS011;6232;48.094;11.288;2023-02-28T00:29:19;7.33;;;4.00;;
12332;SDS011;6232;48.094;11.288;2023-02-28T00:32:04;5.00;;;4.50;;
12332;SDS011;6232;48.094;11.288;2023-02-28T00:34:50;4.87;;;3.50;;
12332;SDS011;6232;48.094;11.288;2023-02-28T00:37:36;4.17;;;3.30;;
12332;SDS011;6232;48.094;11.288;2023-02-28T00:40:21;4.60;;;3.77;;
12332;SDS011;6232;48.094;11.288;2023-02-28T00:43:07;14.03;;;4.70;;
12332;SDS011;6232;48.094;11.288;2023-02-28T00:45:52;4.07;;;3.67;;
12332;SDS011;6232;48.094;11.288;2023-02-28T00:48:38;4.33;;;3.57;;
12332;SDS011;6232;48.094;11.288;2023-02-28T00:51:23;5.33;;;3.87;;
12332;SDS011;6232;48.094;11.288;2023-02-28T00:54:09;3.67;;;3.37;;
12332;SDS011;6232;48.094;11.288;2023-02-28T00:56:55;5.77;;;4.00;;
12332;SDS011;6232;48.094;11.288;2023-02-28T00:59:40;4.60;;;4.00;;
12332;SDS011;6232;48.094;11.288;2023-02-28T01:02:26;5.73;;;4.60;;
12332;SDS011;6232;48.094;11.288;2023-02-28T01:05:11;11.00;;;4.07;;
12332;SDS011;6232;48.094;11.288;2023-02-28T01:07:57;8.27;;;4.33;;
12332;SDS011;6232;48.094;11.288;2023-02-28T01:10:42;4.10;;;3.80;;
12332;SDS011;6232;48.094;11.288;2023-02-28T01:13:28;5.47;;;4.60;;
12332;SDS011;6232;48.094;11.288;2023-02-28T01:16:13;6.43;;;4.57;;
12332;SDS011;6232;48.094;11.288;2023-02-28T01:18:59;8.67;;;4.70;;
12332;SDS011;6232;48.094;11.288;2023-02-28T01:21:45;4.83;;;4.43;;
12332;SDS011;6232;48.094;11.288;2023-02-28T01:24:30;4.83;;;4.33;;
12332;SDS011;6232;48.094;11.288;2023-02-28T01:27:16;5.33;;;4.60;;
12332;SDS011;6232;48.094;11.288;2023-02-28T01:30:02;10.70;;;4.90;;
12332;SDS011;6232;48.094;11.288;2023-02-28T01:32:48;7.20;;;3.63;;
12332;SDS011;6232;48.094;11.288;2023-02-28T01:35:34;7.77;;;6.03;;
12332;SDS011;6232;48.094;11.288;2023-02-28T01:38:20;9.53;;;4.40;;
12332;SDS011;6232;48.094;11.288;2023-02-28T01:41:05;6.40;;;4.57;;
12332;SDS011;6232;48.094;11.288;2023-02-28T01:43:53;4.77;;;4.33;;
12332;SDS011;6232;48.094;11.288;2023-02-28T01:46:39;8.40;;;4.30;;
12332;SDS011;6232;48.094;11.288;2023-02-28T01:49:24;4.87;;;4.37;;
12332;SDS011;6232;48.094;11.288;2023-02-28T01:52:10;6.00;;;4.57;;
12332;SDS011;6232;48.094;11.288;2023-02-28T01:55:00;7.07;;;4.70;;
12332;SDS011;6232;48.094;11.288;2023-02-28T01:57:48;5.33;;;4.47;;
12332;SDS011;6232;48.094;11.288;2023-02-28T02:00:33;4.73;;;4.23;;
12332;SDS011;6232;48.094;11.288;2023-02-28T02:03:19;4.10;;;3.80;;
12332;SDS011;6232;48.094;11.288;2023-02-28T02:06:05;6.67;;;4.50;;
12332;SDS011;6232;48.094;11.288;2023-02-28T02:08:51;6.40;;;4.67;;
12332;SDS011;6232;48.094;11.288;2023-02-28T02:11:37;8.83;;;5.27;;
12332;SDS011;6232;48.094;11.288;2023-02-28T02:14:37;3.97;;;3.63;;
12332;SDS011;6232;48.094;11.288;2023-02-28T02:17:28;6.03;;;4.30;;
12332;SDS011;6232;48.094;11.288;2023-02-28T02:23:30;4.87;;;4.50;;
12332;SDS011;6232;48.094;11.288;2023-02-28T02:31:55;8.03;;;4.87;;
12332;SDS011;6232;48.094;11.288;2023-02-28T02:40:35;5.17;;;4.67;;
12332;SDS011;6232;48.094;11.288;2023-02-28T02:43:25;7.33;;;4.60;;
12332;SDS011;6232;48.094;11.288;2023-02-28T02:46:16;8.93;;;4.37;;
12332;SDS011;6232;48.094;11.288;2023-02-28T02:49:05;9.20;;;4.40;;
12332;SDS011;6232;48.094;11.288;2023-02-28T02:51:51;7.03;;;4.50;;
12332;SDS011;6232;48.094;11.288;2023-02-28T02:54:40;9.97;;;4.83;;
12332;SDS011;6232;48.094;11.288;2023-02-28T02:57:34;5.10;;;4.60;;
12332;SDS011;6232;48.094;11.288;2023-02-28T03:00:23;5.70;;;3.43;;
12332;SDS011;6232;48.094;11.288;2023-02-28T03:03:10;7.17;;;4.50;;
12332;SDS011;6232;48.094;11.288;2023-02-28T03:05:57;8.40;;;4.20;;
12332;SDS011;6232;48.094;11.288;2023-02-28T03:08:43;7.00;;;4.57;;
12332;SDS011;6232;48.094;11.288;2023-02-28T03:11:29;5.77;;;5.00;;
12332;SDS011;6232;48.094;11.288;2023-02-28T03:14:25;5.53;;;4.57;;
12332;SDS011;6232;48.094;11.288;2023-02-28T03:17:35;4.87;;;4.43;;
12332;SDS011;6232;48.094;11.288;2023-02-28T03:23:21;5.00;;;4.50;;
12332;SDS011;6232;48.094;11.288;2023-02-28T03:26:13;7.93;;;4.33;;
12332;SDS011;6232;48.094;11.288;2023-02-28T03:29:03;5.20;;;4.40;;
12332;SDS011;6232;48.094;11.288;2023-02-28T03:31:52;7.47;;;4.30;;
12332;SDS011;6232;48.094;11.288;2023-02-28T03:34:41;5.00;;;4.20;;
12332;SDS011;6232;48.094;11.288;2023-02-28T03:37:27;5.67;;;5.13;;
12332;SDS011;6232;48.094;11.288;2023-02-28T03:40:15;7.87;;;5.13;;
12332;SDS011;6232;48.094;11.288;2023-02-28T03:43:04;6.83;;;4.10;;
12332;SDS011;6232;48.094;11.288;2023-02-28T03:45:52;5.13;;;4.73;;
12332;SDS011;6232;48.094;11.288;2023-02-28T03:48:40;5.30;;;4.80;;
12332;SDS011;6232;48.094;11.288;2023-02-28T03:51:27;5.30;;;4.80;;
12332;SDS011;6232;48.094;11.288;2023-02-28T03:54:25;6.90;;;4.43;;
12332;SDS011;6232;48.094;11.288;2023-02-28T03:57:15;5.37;;;4.70;;
12332;SDS011;6232;48.094;11.288;2023-02-28T04:00:08;7.03;;;5.20;;
12332;SDS011;6232;48.094;11.288;2023-02-28T04:02:55;8.40;;;5.33;;
12332;SDS011;6232;48.094;11.288;2023-02-28T04:05:45;5.90;;;5.03;;
12332;SDS011;6232;48.094;11.288;2023-02-28T04:08:31;5.77;;;5.17;;
12332;SDS011;6232;48.094;11.288;2023-02-28T04:11:25;5.17;;;4.67;;
12332;SDS011;6232;48.094;11.288;2023-02-28T04:14:13;5.97;;;4.77;;
12332;SDS011;6232;48.094;11.288;2023-02-28T04:16:59;7.03;;;5.10;;
12332;SDS011;6232;48.094;11.288;2023-02-28T04:19:45;4.90;;;4.30;;
12332;SDS011;6232;48.094;11.288;2023-02-28T04:22:30;5.23;;;4.73;;
12332;SDS011;6232;48.094;11.288;2023-02-28T04:25:16;7.60;;;5.03;;
12332;SDS011;6232;48.094;11.288;2023-02-28T04:28:01;7.10;;;5.90;;
12332;SDS011;6232;48.094;11.288;2023-02-28T04:30:47;5.90;;;5.20;;
12332;SDS011;6232;48.094;11.288;2023-02-28T04:33:33;7.47;;;6.13;;
12332;SDS011;6232;48.094;11.288;2023-02-28T04:36:18;25.70;;;6.20;;
12332;SDS011;6232;48.094;11.288;2023-02-28T04:39:04;12.60;;;6.20;;
12332;SDS011;6232;48.094;11.288;2023-02-28T04:41:50;7.60;;;6.07;;
12332;SDS011;6232;48.094;11.288;2023-02-28T04:44:35;8.30;;;5.53;;
12332;SDS011;6232;48.094;11.288;2023-02-28T04:47:21;9.10;;;6.40;;
12332;SDS011;6232;48.094;11.288;2023-02-28T04:50:06;8.63;;;6.30;;
12332;SDS011;6232;48.094;11.288;2023-02-28T04:52:52;12.20;;;7.50;;
12332;SDS011;6232;48.094;11.288;2023-02-28T04:55:38;9.47;;;6.90;;
12332;SDS011;6232;48.094;11.288;2023-02-28T04:58:26;9.60;;;7.30;;
12332;SDS011;6232;48.094;11.288;2023-02-28T05:01:16;8.63;;;6.53;;
12332;SDS011;6232;48.094;11.288;2023-02-28T05:04:03;6.73;;;5.60;;
12332;SDS011;6232;48.094;11.288;2023-02-28T05:06:49;9.70;;;6.90;;
12332;SDS011;6232;48.094;11.288;2023-02-28T05:09:35;7.30;;;5.53;;
12332;SDS011;6232;48.094;11.288;2023-02-28T05:12:20;8.43;;;7.43;;
12332;SDS011;6232;48.094;11.288;2023-02-28T05:15:06;10.47;;;8.27;;
12332;SDS011;6232;48.094;11.288;2023-02-28T05:17:51;10.03;;;6.47;;
12332;SDS011;6232;48.094;11.288;2023-02-28T05:20:37;16.17;;;10.13;;
12332;SDS011;6232;48.094;11.288;2023-02-28T05:23:23;13.60;;;8.50;;
12332;SDS011;6232;48.094;11.288;2023-02-28T05:26:08;17.93;;;8.53;;
12332;SDS011;6232;48.094;11.288;2023-02-28T05:28:54;19.73;;;12.13;;
12332;SDS011;6232;48.094;11.288;2023-02-28T05:31:40;12.73;;;8.53;;
12332;SDS011;6232;48.094;11.288;2023-02-28T05:34:25;8.20;;;7.03;;
12332;SDS011;6232;48.094;11.288;2023-02-28T05:37:12;11.83;;;7.30;;
12332;SDS011;6232;48.094;11.288;2023-02-28T05:39:58;13.90;;;9.27;;
12332;SDS011;6232;48.094;11.288;2023-02-28T05:42:43;10.40;;;7.57;;
12332;SDS011;6232;48.094;11.288;2023-02-28T05:45:29;14.43;;;8.23;;
12332;SDS011;6232;48.094;11.288;2023-02-28T05:48:14;10.47;;;7.00;;
12332;SDS011;6232;48.094;11.288;2023-02-28T05:51:00;14.30;;;7.50;;
12332;SDS011;6232;48.094;11.288;2023-02-28T05:53:46;10.77;;;8.10;;
12332;SDS011;6232;48.094;11.288;2023-02-28T05:56:32;11.93;;;9.63;;
12332;SDS011;6232;48.094;11.288;2023-02-28T05:59:19;12.97;;;8.63;;
12332;SDS011;6232;48.094;11.288;2023-02-28T06:02:10;9.30;;;7.43;;
12332;SDS011;6232;48.094;11.288;2023-02-28T06:04:57;14.13;;;9.00;;
12332;SDS011;6232;48.094;11.288;2023-02-28T06:07:43;17.63;;;10.70;;
12332;SDS011;6232;48.094;11.288;2023-02-28T06:10:29;17.07;;;9.63;;
12332;SDS011;6232;48.094;11.288;2023-02-28T06:13:14;17.87;;;9.67;;
12332;SDS011;6232;48.094;11.288;2023-02-28T06:16:00;13.10;;;8.63;;
12332;SDS011;6232;48.094;11.288;2023-02-28T06:18:46;16.47;;;9.60;;
12332;SDS011;6232;48.094;11.288;2023-02-28T06:21:31;17.23;;;11.40;;
12332;SDS011;6232;48.094;11.288;2023-02-28T06:24:17;13.30;;;9.10;;
12332;SDS011;6232;48.094;11.288;2023-02-28T06:27:03;10.63;;;8.90;;
12332;SDS011;6232;48.094;11.288;2023-02-28T06:29:53;12.83;;;9.73;;
12332;SDS011;6232;48.094;11.288;2023-02-28T06:32:39;15.33;;;10.93;;
12332;SDS011;6232;48.094;11.288;2023-02-28T06:35:24;11.80;;;7.37;;
12332;SDS011;6232;48.094;11.288;2023-02-28T06:38:10;17.63;;;10.53;;
12332;SDS011;6232;48.094;11.288;2023-02-28T06:40:56;26.07;;;10.43;;
12332;SDS011;6232;48.094;11.288;2023-02-28T06:43:42;13.33;;;9.57;;
12332;SDS011;6232;48.094;11.288;2023-02-28T06:46:28;16.40;;;10.73;;
12332;SDS011;6232;48.094;11.288;2023-02-28T06:49:14;13.57;;;8.30;;
12332;SDS011;6232;48.094;11.288;2023-02-28T06:52:00;14.97;;;10.10;;
12332;SDS011;6232;48.094;11.288;2023-02-28T06:54:45;15.93;;;10.33;;
12332;SDS011;6232;48.094;11.288;2023-02-28T06:57:32;13.70;;;10.20;;
12332;SDS011;6232;48.094;11.288;2023-02-28T07:00:18;15.93;;;10.77;;
12332;SDS011;6232;48.094;11.288;2023-02-28T07:03:03;18.87;;;9.70;;
12332;SDS011;6232;48.094;11.288;2023-02-28T07:05:49;16.20;;;10.40;;
12332;SDS011;6232;48.094;11.288;2023-02-28T07:08:35;11.50;;;8.80;;
12332;SDS011;6232;48.094;11.288;2023-02-28T07:11:21;16.37;;;10.70;;
12332;SDS011;6232;48.094;11.288;2023-02-28T07:14:10;18.53;;;10.97;;
12332;SDS011;6232;48.094;11.288;2023-02-28T07:16:56;19.03;;;10.57;;
12332;SDS011;6232;48.094;11.288;2023-02-28T07:19:41;25.73;;;11.47;;
12332;SDS011;6232;48.094;11.288;2023-02-28T07:22:27;15.13;;;11.13;;
12332;SDS011;6232;48.094;11.288;2023-02-28T07:25:13;19.17;;;11.10;;
12332;SDS011;6232;48.094;11.288;2023-02-28T07:27:59;14.23;;;10.60;;
12332;SDS011;6232;48.094;11.288;2023-02-28T07:30:45;17.40;;;10.77;;
12332;SDS011;6232;48.094;11.288;2023-02-28T07:33:31;16.07;;;10.40;;
12332;SDS011;6232;48.094;11.288;2023-02-28T07:36:16;15.63;;;11.03;;
12332;SDS011;6232;48.094;11.288;2023-02-28T07:39:03;15.87;;;9.20;;
12332;SDS011;6232;48.094;11.288;2023-02-28T07:41:49;14.17;;;9.40;;
12332;SDS011;6232;48.094;11.288;2023-02-28T07:44:35;14.97;;;9.73;;
12332;SDS011;6232;48.094;11.288;2023-02-28T07:47:25;14.60;;;9.33;;
12332;SDS011;6232;48.094;11.288;2023-02-28T07:50:11;24.07;;;12.00;;
12332;SDS011;6232;48.094;11.288;2023-02-28T07:52:58;19.30;;;10.50;;
12332;SDS011;6232;48.094;11.288;2023-02-28T07:55:43;15.63;;;11.17;;
12332;SDS011;6232;48.094;11.288;2023-02-28T07:58:29;22.03;;;10.17;;
12332;SDS011;6232;48.094;11.288;2023-02-28T08:01:15;21.70;;;11.77;;
12332;SDS011;6232;48.094;11.288;2023-02-28T08:04:00;14.97;;;9.53;;
12332;SDS011;6232;48.094;11.288;2023-02-28T08:06:46;14.43;;;9.47;;
12332;SDS011;6232;48.094;11.288;2023-02-28T08:09:32;14.80;;;10.33;;
12332;SDS011;6232;48.094;11.288;2023-02-28T08:12:18;14.13;;;8.97;;
12332;SDS011;6232;48.094;11.288;2023-02-28T08:15:03;17.73;;;10.57;;
12332;SDS011;6232;48.094;11.288;2023-02-28T08:17:49;29.60;;;10.57;;
12332;SDS011;6232;48.094;11.288;2023-02-28T08:20:34;14.67;;;10.37;;
12332;SDS011;6232;48.094;11.288;2023-02-28T08:23:20;14.90;;;10.83;;
12332;SDS011;6232;48.094;11.288;2023-02-28T08:26:06;15.20;;;9.90;;
12332;SDS011;6232;48.094;11.288;2023-02-28T08:28:51;19.00;;;12.00;;
12332;SDS011;6232;48.094;11.288;2023-02-28T08:31:37;18.33;;;11.67;;
12332;SDS011;6232;48.094;11.288;2023-02-28T08:34:23;23.37;;;10.27;;
12332;SDS011;6232;48.094;11.288;2023-02-28T08:37:09;15.93;;;10.10;;
12332;SDS011;6232;48.094;11.288;2023-02-28T08:39:54;22.20;;;11.73;;
12332;SDS011;6232;48.094;11.288;2023-02-28T08:42:40;15.40;;;12.50;;
12332;SDS011;6232;48.094;11.288;2023-02-28T08:45:26;20.70;;;11.17;;
12332;SDS011;6232;48.094;11.288;2023-02-28T08:48:11;14.37;;;10.50;;
12332;SDS011;6232;48.094;11.288;2023-02-28T08:51:01;17.33;;;11.27;;
12332;SDS011;6232;48.094;11.288;2023-02-28T08:53:47;20.30;;;12.57;;
12332;SDS011;6232;48.094;11.288;2023-02-28T08:56:34;15.43;;;11.00;;
12332;SDS011;6232;48.094;11.288;2023-02-28T08:59:21;20.03;;;9.77;;
12332;SDS011;6232;48.094;11.288;2023-02-28T09:02:12;21.80;;;11.97;;
12332;SDS011;6232;48.094;11.288;2023-02-28T09:04:57;16.40;;;11.30;;
12332;SDS011;6232;48.094;11.288;2023-02-28T09:07:43;16.97;;;11.50;;
12332;SDS011;6232;48.094;11.288;2023-02-28T09:10:29;14.23;;;9.57;;
12332;SDS011;6232;48.094;11.288;2023-02-28T09:13:14;13.73;;;9.90;;
12332;SDS011;6232;48.094;11.288;2023-02-28T09:16:01;16.97;;;9.40;;
12332;SDS011;6232;48.094;11.288;2023-02-28T09:18:47;17.93;;;11.50;;
12332;SDS011;6232;48.094;11.288;2023-02-28T09:21:32;13.50;;;10.27;;
12332;SDS011;6232;48.094;11.288;2023-02-28T09:24:18;14.60;;;10.00;;
12332;SDS011;6232;48.094;11.288;2023-02-28T09:27:05;19.03;;;11.67;;
12332;SDS011;6232;48.094;11.288;2023-02-28T09:29:51;14.40;;;10.70;;
12332;SDS011;6232;48.094;11.288;2023-02-28T09:32:37;17.47;;;10.90;;
12332;SDS011;6232;48.094;11.288;2023-02-28T09:35:23;19.10;;;12.50;;
12332;SDS011;6232;48.094;11.288;2023-02-28T09:38:09;35.20;;;16.00;;
12332;SDS011;6232;48.094;11.288;2023-02-28T09:40:59;16.07;;;11.57;;
12332;SDS011;6232;48.094;11.288;2023-02-28T09:43:47;18.90;;;12.30;;
12332;SDS011;6232;48.094;11.288;2023-02-28T09:46:38;20.47;;;11.90;;
12332;SDS011;6232;48.094;11.288;2023-02-28T09:49:46;17.03;;;13.00;;
12332;SDS011;6232;48.094;11.288;2023-02-28T09:52:32;15.63;;;11.37;;
12332;SDS011;6232;48.094;11.288;2023-02-28T09:55:33;17.43;;;11.57;;
12332;SDS011;6232;48.094;11.288;2023-02-28T09:58:32;14.77;;;10.73;;
12332;SDS011;6232;48.094;11.288;2023-02-28T10:01:37;13.87;;;10.60;;
12332;SDS011;6232;48.094;11.288;2023-02-28T10:10:44;16.67;;;12.10;;
12332;SDS011;6232;48.094;11.288;2023-02-28T10:13:35;18.30;;;12.37;;
12332;SDS011;6232;48.094;11.288;2023-02-28T10:16:24;15.73;;;11.67;;
12332;SDS011;6232;48.094;11.288;2023-02-28T10:19:22;20.97;;;11.33;;
12332;SDS011;6232;48.094;11.288;2023-02-28T10:22:14;15.03;;;9.90;;
12332;SDS011;6232;48.094;11.288;2023-02-28T10:25:01;19.93;;;11.37;;
12332;SDS011;6232;48.094;11.288;2023-02-28T10:27:49;18.63;;;11.67;;
12332;SDS011;6232;48.094;11.288;2023-02-28T10:30:36;15.23;;;10.50;;
12332;SDS011;6232;48.094;11.288;2023-02-28T10:33:24;17.13;;;11.40;;
12332;SDS011;6232;48.094;11.288;2023-02-28T10:36:12;18.20;;;11.63;;
12332;SDS011;6232;48.094;11.288;2023-02-28T10:38:59;16.30;;;12.23;;
12332;SDS011;6232;48.094;11.288;2023-02-28T10:41:45;16.83;;;12.03;;
12332;SDS011;6232;48.094;11.288;2023-02-28T10:44:30;17.60;;;13.00;;
12332;SDS011;6232;48.094;11.288;2023-02-28T10:47:16;21.10;;;14.30;;
12332;SDS011;6232;48.094;11.288;2023-02-28T10:50:03;20.60;;;12.60;;
12332;SDS011;6232;48.094;11.288;2023-02-28T10:52:48;24.17;;;13.50;;
12332;SDS011;6232;48.094;11.288;2023-02-28T10:55:34;22.30;;;14.07;;
12332;SDS011;6232;48.094;11.288;2023-02-28T10:58:27;21.17;;;12.57;;
12332;SDS011;6232;48.094;11.288;2023-02-28T11:01:15;17.10;;;11.77;;
12332;SDS011;6232;48.094;11.288;2023-02-28T11:04:01;20.67;;;12.20;;
12332;SDS011;6232;48.094;11.288;2023-02-28T11:06:46;18.20;;;11.37;;
12332;SDS011;6232;48.094;11.288;2023-02-28T11:09:39;24.10;;;15.00;;
12332;SDS011;6232;48.094;11.288;2023-02-28T11:12:29;14.90;;;11.33;;
12332;SDS011;6232;48.094;11.288;2023-02-28T11:18:15;16.47;;;11.57;;
12332;SDS011;6232;48.094;11.288;2023-02-28T11:21:04;17.33;;;11.73;;
12332;SDS011;6232;48.094;11.288;2023-02-28T11:23:51;15.73;;;11.90;;
12332;SDS011;6232;48.094;11.288;2023-02-28T11:26:47;15.67;;;11.20;;
12332;SDS011;6232;48.094;11.288;2023-02-28T11:29:34;15.30;;;11.67;;
12332;SDS011;6232;48.094;11.288;2023-02-28T11:32:23;18.83;;;10.80;;
12332;SDS011;6232;48.094;11.288;2023-02-28T11:37:55;15.50;;;11.70;;
12332;SDS011;6232;48.094;11.288;2023-02-28T11:43:38;13.90;;;11.40;;
12332;SDS011;6232;48.094;11.288;2023-02-28T11:55:27;17.87;;;11.07;;
12332;SDS011;6232;48.094;11.288;2023-02-28T11:58:20;15.50;;;10.70;;
12332;SDS011;6232;48.094;11.288;2023-02-28T12:01:26;17.10;;;10.83;;
12332;SDS011;6232;48.094;11.288;2023-02-28T12:15:32;16.87;;;10.07;;
12332;SDS011;6232;48.094;11.288;2023-02-28T12:21:17;11.57;;;10.10;;
12332;SDS011;6232;48.094;11.288;2023-02-28T12:27:09;13.30;;;10.53;;
12332;SDS011;6232;48.094;11.288;2023-02-28T12:30:04;13.07;;;10.53;;
12332;SDS011;6232;48.094;11.288;2023-02-28T12:32:55;12.80;;;10.50;;
12332;SDS011;6232;48.094;11.288;2023-02-28T12:39:08;11.37;;;10.17;;
12332;SDS011;6232;48.094;11.288;2023-02-28T12:41:49;12.90;;;10.60;;
12332;SDS011;6232;48.094;11.288;2023-02-28T12:44:44;11.90;;;10.70;;
12332;SDS011;6232;48.094;11.288;2023-02-28T12:47:31;12.33;;;11.03;;
12332;SDS011;6232;48.094;11.288;2023-02-28T12:50:17;12.33;;;10.90;;
12332;SDS011;6232;48.094;11.288;2023-02-28T12:53:07;12.93;;;11.40;;
12332;SDS011;6232;48.094;11.288;2023-02-28T12:56:09;13.90;;;11.50;;
12332;SDS011;6232;48.094;11.288;2023-02-28T12:58:59;14.30;;;11.03;;
12332;SDS011;6232;48.094;11.288;2023-02-28T13:10:46;13.37;;;11.90;;
12332;SDS011;6232;48.094;11.288;2023-02-28T13:13:32;12.03;;;10.03;;
12332;SDS011;6232;48.094;11.288;2023-02-28T13:16:18;18.40;;;12.53;;
12332;SDS011;6232;48.094;11.288;2023-02-28T13:19:08;12.50;;;10.47;;
12332;SDS011;6232;48.094;11.288;2023-02-28T13:21:55;11.60;;;9.50;;
12332;SDS011;6232;48.094;11.288;2023-02-28T13:24:43;14.03;;;11.13;;
12332;SDS011;6232;48.094;11.288;2023-02-28T13:27:35;13.80;;;10.00;;
12332;SDS011;6232;48.094;11.288;2023-02-28T13:33:27;12.17;;;9.97;;
12332;SDS011;6232;48.094;11.288;2023-02-28T13:38:59;16.40;;;11.67;;
12332;SDS011;6232;48.094;11.288;2023-02-28T13:41:47;21.13;;;12.10;;
12332;SDS011;6232;48.094;11.288;2023-02-28T13:44:32;14.27;;;11.20;;
12332;SDS011;6232;48.094;11.288;2023-02-28T13:50:27;14.53;;;11.10;;
12332;SDS011;6232;48.094;11.288;2023-02-28T13:58:55;13.67;;;11.17;;
12332;SDS011;6232;48.094;11.288;2023-02-28T14:01:58;17.30;;;10.27;;
12332;SDS011;6232;48.094;11.288;2023-02-28T14:05:21;14.97;;;10.80;;
12332;SDS011;6232;48.094;11.288;2023-02-28T14:08:03;13.10;;;11.63;;
12332;SDS011;6232;48.094;11.288;2023-02-28T14:10:50;16.73;;;10.10;;
12332;SDS011;6232;48.094;11.288;2023-02-28T14:13:41;19.03;;;10.10;;
12332;SDS011;6232;48.094;11.288;2023-02-28T14:16:37;17.13;;;11.40;;
12332;SDS011;6232;48.094;11.288;2023-02-28T14:19:25;16.07;;;11.57;;
12332;SDS011;6232;48.094;11.288;2023-02-28T14:31:01;15.27;;;10.40;;
12332;SDS011;6232;48.094;11.288;2023-02-28T14:36:41;14.80;;;10.77;;
12332;SDS011;6232;48.094;11.288;2023-02-28T14:39:27;12.53;;;10.10;;
12332;SDS011;6232;48.094;11.288;2023-02-28T14:42:27;14.23;;;10.90;;
12332;SDS011;6232;48.094;11.288;2023-02-28T14:45:20;16.20;;;10.37;;
12332;SDS011;6232;48.094;11.288;2023-02-28T14:48:08;14.57;;;11.40;;
12332;SDS011;6232;48.094;11.288;2023-02-28T14:50:58;22.50;;;10.43;;
12332;SDS011;6232;48.094;11.288;2023-02-28T14:53:44;13.40;;;10.57;;
12332;SDS011;6232;48.094;11.288;2023-02-28T14:56:37;11.07;;;9.60;;
12332;SDS011;6232;48.094;11.288;2023-02-28T14:59:24;14.77;;;10.17;;
12332;SDS011;6232;48.094;11.288;2023-02-28T15:02:23;13.20;;;10.33;;
12332;SDS011;6232;48.094;11.288;2023-02-28T15:08:05;11.30;;;9.13;;
12332;SDS011;6232;48.094;11.288;2023-02-28T15:16:32;12.93;;;10.07;;
12332;SDS011;6232;48.094;11.288;2023-02-28T15:19:21;13.33;;;9.50;;
12332;SDS011;6232;48.094;11.288;2023-02-28T15:22:13;12.10;;;9.70;;
12332;SDS011;6232;48.094;11.288;2023-02-28T15:25:02;15.30;;;9.00;;
12332;SDS011;6232;48.094;11.288;2023-02-28T15:27:50;10.53;;;8.87;;
12332;SDS011;6232;48.094;11.288;2023-02-28T15:30:36;15.80;;;11.43;;
12332;SDS011;6232;48.094;11.288;2023-02-28T15:33:26;15.83;;;10.23;;
12332;SDS011;6232;48.094;11.288;2023-02-28T15:36:13;11.33;;;9.70;;
12332;SDS011;6232;48.094;11.288;2023-02-28T15:39:00;15.00;;;9.70;;
12332;SDS011;6232;48.094;11.288;2023-02-28T15:41:46;15.63;;;10.60;;
12332;SDS011;6232;48.094;11.288;2023-02-28T15:44:33;12.93;;;9.87;;
12332;SDS011;6232;48.094;11.288;2023-02-28T15:47:22;12.10;;;9.43;;
12332;SDS011;6232;48.094;11.288;2023-02-28T15:50:10;17.60;;;10.23;;
12332;SDS011;6232;48.094;11.288;2023-02-28T15:52:57;14.50;;;10.23;;
12332;SDS011;6232;48.094;11.288;2023-02-28T15:55:43;11.97;;;9.97;;
12332;SDS011;6232;48.094;11.288;2023-02-28T15:58:29;14.60;;;9.87;;
12332;SDS011;6232;48.094;11.288;2023-02-28T16:04:12;12.80;;;9.53;;
12332;SDS011;6232;48.094;11.288;2023-02-28T16:09:44;11.77;;;9.40;;
12332;SDS011;6232;48.094;11.288;2023-02-28T16:12:30;19.07;;;14.47;;
12332;SDS011;6232;48.094;11.288;2023-02-28T16:18:02;49.47;;;36.20;;
12332;SDS011;6232;48.094;11.288;2023-02-28T16:20:47;14.00;;;10.60;;
12332;SDS011;6232;48.094;11.288;2023-02-28T16:23:33;13.30;;;9.23;;
12332;SDS011;6232;48.094;11.288;2023-02-28T16:26:23;18.43;;;10.13;;
12332;SDS011;6232;48.094;11.288;2023-02-28T16:29:09;16.63;;;11.33;;
12332;SDS011;6232;48.094;11.288;2023-02-28T16:31:58;21.03;;;9.97;;
12332;SDS011;6232;48.094;11.288;2023-02-28T16:34:44;19.93;;;10.97;;
12332;SDS011;6232;48.094;11.288;2023-02-28T16:37:29;12.80;;;9.33;;
12332;SDS011;6232;48.094;11.288;2023-02-28T16:40:16;19.30;;;11.33;;
12332;SDS011;6232;48.094;11.288;2023-02-28T16:43:04;16.03;;;10.90;;
12332;SDS011;6232;48.094;11.288;2023-02-28T16:45:54;18.73;;;10.60;;
12332;SDS011;6232;48.094;11.288;2023-02-28T16:48:40;11.10;;;9.20;;
12332;SDS011;6232;48.094;11.288;2023-02-28T16:51:26;18.00;;;10.90;;
12332;SDS011;6232;48.094;11.288;2023-02-28T16:54:13;13.67;;;9.67;;
12332;SDS011;6232;48.094;11.288;2023-02-28T16:56:58;13.87;;;10.20;;
12332;SDS011;6232;48.094;11.288;2023-02-28T16:59:44;13.43;;;10.13;;
12332;SDS011;6232;48.094;11.288;2023-02-28T17:02:30;19.17;;;12.70;;
12332;SDS011;6232;48.094;11.288;2023-02-28T17:05:15;40.50;;;24.07;;
12332;SDS011;6232;48.094;11.288;2023-02-28T17:08:02;30.10;;;19.30;;
12332;SDS011;6232;48.094;11.288;2023-02-28T17:10:48;33.27;;;18.30;;
12332;SDS011;6232;48.094;11.288;2023-02-28T17:13:33;22.43;;;14.67;;
12332;SDS011;6232;48.094;11.288;2023-02-28T17:16:22;20.77;;;14.60;;
12332;SDS011;6232;48.094;11.288;2023-02-28T17:19:11;22.30;;;13.80;;
12332;SDS011;6232;48.094;11.288;2023-02-28T17:21:57;23.83;;;13.43;;
12332;SDS011;6232;48.094;11.288;2023-02-28T17:24:43;19.57;;;11.87;;
12332;SDS011;6232;48.094;11.288;2023-02-28T17:27:30;21.33;;;13.70;;
12332;SDS011;6232;48.094;11.288;2023-02-28T17:30:21;18.90;;;12.20;;
12332;SDS011;6232;48.094;11.288;2023-02-28T17:33:06;23.13;;;13.10;;
12332;SDS011;6232;48.094;11.288;2023-02-28T17:35:52;19.47;;;13.27;;
12332;SDS011;6232;48.094;11.288;2023-02-28T17:38:38;20.20;;;13.03;;
12332;SDS011;6232;48.094;11.288;2023-02-28T17:41:23;22.40;;;13.33;;
12332;SDS011;6232;48.094;11.288;2023-02-28T17:44:09;28.40;;;15.67;;
12332;SDS011;6232;48.094;11.288;2023-02-28T17:46:55;28.27;;;20.57;;
12332;SDS011;6232;48.094;11.288;2023-02-28T17:49:41;27.17;;;17.53;;
12332;SDS011;6232;48.094;11.288;2023-02-28T17:52:26;29.57;;;17.50;;
12332;SDS011;6232;48.094;11.288;2023-02-28T17:55:14;27.07;;;17.97;;
12332;SDS011;6232;48.094;11.288;2023-02-28T17:58:00;19.17;;;14.47;;
12332;SDS011;6232;48.094;11.288;2023-02-28T18:00:46;19.30;;;13.63;;
12332;SDS011;6232;48.094;11.288;2023-02-28T18:03:33;20.40;;;14.90;;
12332;SDS011;6232;48.094;11.288;2023-02-28T18:06:22;23.77;;;15.50;;
12332;SDS011;6232;48.094;11.288;2023-02-28T18:09:09;23.00;;;15.10;;
12332;SDS011;6232;48.094;11.288;2023-02-28T18:11:55;23.43;;;15.53;;
12332;SDS011;6232;48.094;11.288;2023-02-28T18:14:41;21.70;;;15.07;;
12332;SDS011;6232;48.094;11.288;2023-02-28T18:17:27;20.87;;;14.30;;
12332;SDS011;6232;48.094;11.288;2023-02-28T18:20:13;27.37;;;15.43;;
12332;SDS011;6232;48.094;11.288;2023-02-28T18:22:58;21.93;;;14.97;;
12332;SDS011;6232;48.094;11.288;2023-02-28T18:25:44;26.47;;;16.00;;